Home > Products > Valid Products > TAF

000
FTUS43 KABR 281722 AAC
TAFATY
TAF AMD
KATY 281722Z 2817/2918 02008KT P6SM VCSH OVC015
     FM282200 35009KT P6SM VCTS OVC035CB
     FM290000 33007KT P6SM BKN045
     FM290500 VRB04KT P6SM SCT070
     FM291400 28008KT P6SM SCT150=



000
FTUS43 KABR 281722 AAC
TAFABR
TAF AMD
KABR 281722Z 2817/2918 04008KT P6SM OVC025
     FM282000 02007KT P6SM VCTS OVC040CB
     FM290000 35006KT P6SM BKN080
     FM290200 VRB05KT P6SM SCT130
     FM291500 31008KT P6SM SCT250=



000
FTUS43 KABR 281722 AAA
TAFPIR
TAF AMD
KPIR 281722Z 2817/2918 36006KT P6SM BKN200
     FM290400 VRB04KT P6SM BKN100
     FM291400 33006KT P6SM SCT250=



000
FTUS43 KABR 281722 AAA
TAFMBG
TAF AMD
KMBG 281722Z 2817/2918 36007KT P6SM BKN200
     FM282200 36005KT P6SM BKN100
     FM290000 VRB05KT P6SM SCT250=



000
FTUS43 KABR 281415 AAB
TAFATY
TAF AMD
KATY 281415Z 2814/2912 06008KT 6SM -RA BR OVC006
     FM281700 02006KT P6SM VCTS OVC008CB
     FM282000 36008KT P6SM VCTS OVC025CB
     FM290000 33007KT P6SM BKN040=



000
FTUS43 KABR 281105 AAC
TAFABR
TAF AMD
KABR 281105Z 2811/2906 02006KT P6SM VCSH OVC100
     FM281500 02005KT P6SM OVC035
     FM281800 02009KT P6SM VCSH BKN040
     FM290400 27004KT P6SM SCT200=



000
FTUS43 KABR 280520
TAFMBG
TAF
KMBG 280520Z 2806/2906 35004KT P6SM BKN130
     FM281800 36007KT P6SM VCSH BKN080
     FM290200 31004KT P6SM SCT200=



000
FTUS43 KABR 280520
TAFABR
TAF
KABR 280520Z 2806/2906 12003KT P6SM BKN070 OVC090
     FM281000 02004KT P6SM BKN020
     FM281500 02005KT P6SM OVC035
     FM281800 02009KT P6SM VCSH BKN040
     FM290400 27004KT P6SM SCT200=



000
FTUS43 KABR 280520
TAFPIR
TAF
KPIR 280520Z 2806/2906 33008KT P6SM BKN120
     FM282000 34007KT P6SM VCSH SCT070
     FM290400 26004KT P6SM SCT250=



000
FTUS43 KABR 280520
TAFATY
TAF
KATY 280520Z 2806/2906 00000KT P6SM OVC040
     FM281000 04005KT 3SM BR OVC010
     FM281600 02008KT P6SM VCSH OVC010
     FM282200 35008KT P6SM VCSH BKN050
     FM290300 30005KT P6SM SCT070=



000
FTUS43 KABR 271846 AAA
TAFATY
TAF AMD
KATY 271846Z 2719/2818 VRB03KT P6SM -SHRA VCTS BKN010 OVC080CB
      TEMPO 2719/2721 SCT010 OVC060CB
     FM272100 VRB06KT P6SM SCT070 OVC100
     FM272300 05008KT P6SM VCTS SCT060 BKN080CB OVC110
     FM280200 05006KT P6SM VCSH BKN110
     FM280400 05006KT P6SM SCT070 BKN120
     FM280800 02006KT P6SM VCSH BKN035 OVC070
     FM281500 36008KT P6SM VCTS SCT050CB BKN100=



000
FTUS43 KABR 271120
TAFATY
TAF
KATY 271120Z 2712/2812 VRB06KT P6SM BKN150
     FM271700 08007KT P6SM VCTS SCT050CB BKN120
     FM280200 05008KT P6SM VCSH BKN120=



000
FTUS43 KABR 271120
TAFPIR
TAF
KPIR 271120Z 2712/2812 35008KT P6SM BKN130
     FM271700 02008KT P6SM VCTS SCT050CB BKN200
     FM280100 03006KT P6SM SCT150=



000
FTUS43 KABR 271120
TAFMBG
TAF
KMBG 271120Z 2712/2812 34004KT P6SM BKN200
     FM271800 VRB04KT P6SM BKN050=



000
FTUS43 KABR 271120
TAFABR
TAF
KABR 271120Z 2712/2812 VRB06KT P6SM BKN150
     FM271700 05008KT P6SM VCTS SCT050CB BKN150
     FM280200 03006KT P6SM VCSH SCT140
     FM280900 02005KT P6SM BKN100=



000
FTUS43 KABR 270850 AAC
TAFABR
TAF AMD
KABR 270850Z 2709/2806 25007KT P6SM FEW050 OVC100
     FM272000 04009KT P6SM -SHRA BKN140
     FM280200 VRB05KT P6SM BKN080=



000
FTUS43 KABR 270849 AAB
TAFATY
TAF AMD
KATY 270849Z 2709/2806 01003KT P6SM BKN200
     FM271600 06008KT P6SM -SHRA BKN040=



000
FTUS43 KABR 270252 AAB
TAFABR
TAF AMD
KABR 270252Z 2703/2724 16011KT P6SM BKN070
     FM270400 VRB06KT P6SM VCSH SCT200
     FM271700 04009KT P6SM BKN140=



000
FTUS43 KABR 262325
TAFMBG
TAF
KMBG 262325Z 2700/2724 25008KT P6SM SCT200
     FM271000 VRB04KT P6SM SCT250
     FM271700 08009KT P6SM VCSH SCT100 BKN200=



000
FTUS43 KABR 262325
TAFPIR
TAF
KPIR 262325Z 2700/2724 32012KT P6SM FEW070
     FM270600 VRB05KT P6SM BKN200
     FM271700 08008KT P6SM VCSH BKN200=



000
FTUS43 KABR 262325
TAFATY
TAF
KATY 262325Z 2700/2724 VRB04KT P6SM SKC
     FM270900 12006KT P6SM -SHRA BKN090
     FM271200 06006KT P6SM BKN090
     FM271600 03012KT P6SM -SHRA BKN015=



000
FTUS43 KABR 262325
TAFABR
TAF
KABR 262325Z 2700/2724 25010KT P6SM SCT250
     FM270200 VRB06KT P6SM VCSH SCT200
     FM271700 04009KT P6SM BKN140=



000
FTUS43 KABR 261127
TAFABR
TAF
KABR 261127Z 2612/2712 26008KT P6SM SKC
     FM261600 23011KT P6SM SCT050
     FM270100 VRB04KT P6SM SCT250=



000
FTUS43 KABR 261127
TAFPIR
TAF
KPIR 261127Z 2612/2712 18004KT P6SM SCT250
     FM261600 20006KT P6SM SCT060
     FM270100 07005KT P6SM SCT250=



000
FTUS43 KABR 261127
TAFATY
TAF
KATY 261127Z 2612/2712 29008KT P6SM SKC
     FM261600 27011KT P6SM SCT050
     FM270100 VRB04KT P6SM SCT250=



000
FTUS43 KABR 261127
TAFMBG
TAF
KMBG 261127Z 2612/2712 28005KT P6SM SCT250
     FM261600 22009KT P6SM SCT060
     FM270100 31004KT P6SM SCT200=



000
FTUS43 KABR 260221 AAB
TAFATY
TAF AMD
KATY 260221Z 2602/2624 23014KT P6SM -TSRA SCT060CB
     FM260700 22007KT P6SM SCT150
     FM261300 25008KT P6SM SCT250=



000
FTUS43 KABR 260118 AAB
TAFMBG
TAF AMD
KMBG 260118Z 2601/2624 31010KT P6SM BKN060
     FM261600 25009KT P6SM FEW200=



000
FTUS43 KABR 260117 AAA
TAFATY
TAF AMD
KATY 260117Z 2601/2624 23008KT P6SM VCSH SCT060
     FM260700 22007KT P6SM SCT150
     FM261300 25008KT P6SM SCT250=



000
FTUS43 KABR 252221 AAC
TAFPIR
TAF AMD
KPIR 252221Z 2522/2618 33015KT 2SM TSRA BKN050CB
     FM252300 30012KT P6SM -SHRA BKN060
     FM260300 27006KT P6SM SCT200=



    US Dept of Commerce
    National Oceanic and Atmospheric Administration
    National Weather Service
    1325 East West Highway
    Silver Spring, MD 20910
    Page Author: NWS Internet Services Team
Disclaimer
Information Quality
Credits
Glossary
Privacy Policy
Freedom of Information Act (FOIA)
About Us
Career Opportunities